createdAt,value
2018-04-02T00:00:46.613Z,89.29
2018-04-02T00:03:15.810Z,89.27
2018-04-02T00:05:44.969Z,89.42
2018-04-02T00:08:13.365Z,89.35
2018-04-02T00:10:41.761Z,89.09
2018-04-02T00:13:10.144Z,89.00
2018-04-02T00:15:38.549Z,89.09
2018-04-02T00:18:07.701Z,89.11
2018-04-02T00:20:36.075Z,89.29
2018-04-02T00:23:04.585Z,89.44
2018-04-02T00:25:32.967Z,89.49
2018-04-02T00:28:01.355Z,89.57
2018-04-02T00:30:29.780Z,89.57
2018-04-02T00:32:58.183Z,89.60
2018-04-02T00:35:26.594Z,89.61
2018-04-02T00:37:55.025Z,89.57
2018-04-02T00:40:23.411Z,89.66
2018-04-02T00:42:51.795Z,89.46
2018-04-02T00:45:20.186Z,89.37
2018-04-02T00:47:48.572Z,89.42
2018-04-02T00:50:17.063Z,89.57
2018-04-02T00:52:45.461Z,89.58
2018-04-02T00:55:13.852Z,89.67
2018-04-02T00:57:42.303Z,89.89
2018-04-02T01:00:10.684Z,89.80
2018-04-02T01:02:39.095Z,89.55
2018-04-02T01:05:08.049Z,89.75
2018-04-02T01:07:36.432Z,89.93
2018-04-02T01:10:04.809Z,90.08
2018-04-02T01:12:33.244Z,90.02
2018-04-02T01:15:02.436Z,89.81
2018-04-02T01:17:30.957Z,90.12
2018-04-02T01:19:59.382Z,90.27
2018-04-02T01:22:27.779Z,90.59
2018-04-02T01:24:56.940Z,90.83
2018-04-02T01:27:25.315Z,90.77
2018-04-02T01:29:53.706Z,90.85
2018-04-02T01:32:22.130Z,91.06
2018-04-02T01:34:51.338Z,91.06
2018-04-02T01:37:20.526Z,91.42
2018-04-02T01:39:48.923Z,91.41
2018-04-02T01:42:18.237Z,91.53
2018-04-02T01:44:46.808Z,91.83
2018-04-02T01:47:15.962Z,92.02
2018-04-02T01:49:44.357Z,91.68
2018-04-02T01:52:12.754Z,91.92
2018-04-02T01:54:41.159Z,91.97
2018-04-02T01:57:10.483Z,91.94
2018-04-02T01:59:38.912Z,92.05
2018-04-02T02:02:07.512Z,92.31
2018-04-02T02:04:36.723Z,92.37
2018-04-02T02:07:05.113Z,92.22
2018-04-02T02:09:34.274Z,92.24
2018-04-02T02:12:02.651Z,92.30
2018-04-02T02:14:31.060Z,92.17
2018-04-02T02:17:00.216Z,92.15
2018-04-02T02:19:28.612Z,92.37
2018-04-02T02:21:57.026Z,92.48
2018-04-02T02:24:26.188Z,92.58
2018-04-02T02:26:54.695Z,92.50
2018-04-02T02:29:23.861Z,92.44
2018-04-02T02:31:52.451Z,92.36
2018-04-02T02:34:20.944Z,92.26
2018-04-02T02:36:49.359Z,92.21
2018-04-02T02:39:17.879Z,92.13
2018-04-02T02:41:46.284Z,92.32
2018-04-02T02:44:15.174Z,92.61
2018-04-02T02:46:43.570Z,92.49
2018-04-02T02:49:12.118Z,92.47
2018-04-02T02:51:41.979Z,92.30
2018-04-02T02:54:10.716Z,92.24
2018-04-02T02:56:39.151Z,92.05
2018-04-02T02:59:07.528Z,92.38
2018-04-02T03:01:35.975Z,92.10
2018-04-02T03:04:04.370Z,91.76
2018-04-02T03:06:32.783Z,91.77
2018-04-02T03:09:01.969Z,91.61
2018-04-02T03:11:30.391Z,91.54
2018-04-02T03:13:58.730Z,91.35
2018-04-02T03:16:27.124Z,91.27
2018-04-02T03:18:56.288Z,91.21
2018-04-02T03:21:24.694Z,91.24
2018-04-02T03:23:53.106Z,91.24
2018-04-02T03:26:21.513Z,90.67
2018-04-02T03:28:49.898Z,90.78
2018-04-02T03:31:18.473Z,90.92
2018-04-02T03:33:47.098Z,90.28
2018-04-02T03:36:15.546Z,89.99
2018-04-02T03:38:43.940Z,89.99
2018-04-02T03:41:12.342Z,90.03
2018-04-02T03:43:41.498Z,90.27
2018-04-02T03:46:10.184Z,90.41
2018-04-02T03:48:38.600Z,90.39
2018-04-02T03:51:06.977Z,90.29
2018-04-02T03:53:35.407Z,90.54
2018-04-02T03:56:04.552Z,90.51
2018-04-02T03:58:33.014Z,89.96
2018-04-02T04:01:01.441Z,90.07
2018-04-02T04:03:30.691Z,90.28
2018-04-02T04:05:59.085Z,90.36
2018-04-02T04:08:27.485Z,90.08
2018-04-02T04:10:55.871Z,90.30
2018-04-02T04:13:24.270Z,90.26
2018-04-02T04:15:52.706Z,90.68
2018-04-02T04:18:21.148Z,90.55
2018-04-02T04:20:50.308Z,90.51
2018-04-02T04:23:18.722Z,90.79
2018-04-02T04:25:47.094Z,90.38
2018-04-02T04:28:16.267Z,90.47
2018-04-02T04:30:44.647Z,90.75
2018-04-02T04:33:13.056Z,90.84
2018-04-02T04:35:41.479Z,90.65
2018-04-02T04:38:09.928Z,90.66
2018-04-02T04:40:38.316Z,90.89
2018-04-02T04:43:06.792Z,91.21
2018-04-02T04:45:35.191Z,91.04
2018-04-02T04:48:04.354Z,91.01
2018-04-02T04:50:32.750Z,90.72
2018-04-02T04:53:01.621Z,90.52
2018-04-02T04:55:30.031Z,90.77
2018-04-02T04:57:59.180Z,90.38
2018-04-02T05:00:27.577Z,90.02
2018-04-02T05:02:55.991Z,90.23
2018-04-02T05:05:25.150Z,90.19
2018-04-02T05:07:53.611Z,90.08
2018-04-02T05:10:22.012Z,89.85
2018-04-02T05:12:50.401Z,89.87
2018-04-02T05:15:18.808Z,89.54
2018-04-02T05:17:47.206Z,89.57
2018-04-02T05:20:16.363Z,89.27
2018-04-02T05:22:44.792Z,88.86
2018-04-02T05:25:13.187Z,88.66
2018-04-02T05:27:41.583Z,88.39
2018-04-02T05:30:09.967Z,88.16
2018-04-02T05:32:38.379Z,87.94
2018-04-02T05:35:06.751Z,87.72
2018-04-02T05:37:35.167Z,87.83
2018-04-02T05:40:04.337Z,87.65
2018-04-02T05:42:32.718Z,87.95
2018-04-02T05:45:01.196Z,86.99
2018-04-02T05:47:29.591Z,86.92
2018-04-02T05:49:58.752Z,86.40
2018-04-02T05:52:27.214Z,86.16
2018-04-02T05:54:55.604Z,85.97
2018-04-02T05:57:24.119Z,85.12
2018-04-02T05:59:52.503Z,85.85
2018-04-02T06:02:20.904Z,85.77
2018-04-02T06:04:49.376Z,85.83
2018-04-02T06:07:17.776Z,85.03
2018-04-02T06:09:46.255Z,84.67
2018-04-02T06:12:14.664Z,84.34
2018-04-02T06:14:43.061Z,84.40
2018-04-02T06:17:12.192Z,84.04
2018-04-02T06:19:40.598Z,83.62
2018-04-02T06:22:09.118Z,83.16
2018-04-02T06:24:37.547Z,83.31
2018-04-02T06:27:05.948Z,82.06
2018-04-02T06:29:34.339Z,81.97
2018-04-02T06:32:03.479Z,80.98
2018-04-02T06:34:31.867Z,81.10
2018-04-02T06:37:00.365Z,81.17
2018-04-02T06:39:28.732Z,79.08
2018-04-02T06:41:57.143Z,79.76
2018-04-02T06:44:25.538Z,79.61
2018-04-02T06:46:53.928Z,80.76
2018-04-02T06:49:23.094Z,80.40
2018-04-02T06:51:51.525Z,79.97
2018-04-02T06:54:20.787Z,79.10
2018-04-02T06:56:49.222Z,79.42
2018-04-02T06:59:17.795Z,78.04
2018-04-02T07:01:46.184Z,78.45
2018-04-02T07:04:14.564Z,78.93
2018-04-02T07:06:42.991Z,79.57
2018-04-02T07:09:11.414Z,78.24
2018-04-02T07:11:40.575Z,76.84
2018-04-02T07:14:09.035Z,76.28
2018-04-02T07:16:37.420Z,75.88
2018-04-02T07:19:06.032Z,77.05
2018-04-02T07:21:35.185Z,74.97
2018-04-02T07:24:03.564Z,75.33
2018-04-02T07:26:31.949Z,74.51
2018-04-02T07:29:00.331Z,74.02
2018-04-02T07:31:28.825Z,73.63
2018-04-02T07:33:57.223Z,72.98
2018-04-02T07:36:25.633Z,72.52
2018-04-02T07:38:54.866Z,71.84
2018-04-02T07:41:23.262Z,72.26
2018-04-02T07:43:51.692Z,72.49
2018-04-02T07:46:20.091Z,71.65
2018-04-02T07:48:49.584Z,74.74
2018-04-02T07:51:18.013Z,72.31
2018-04-02T07:53:46.526Z,70.51
2018-04-02T07:56:14.922Z,69.81
2018-04-02T07:58:43.332Z,69.38
2018-04-02T08:01:11.734Z,69.47
2018-04-02T08:03:40.139Z,68.88
2018-04-02T08:06:08.543Z,66.68
2018-04-02T08:08:36.990Z,66.73
2018-04-02T08:11:05.428Z,66.02
2018-04-02T08:13:34.590Z,65.03
2018-04-02T08:16:03.053Z,66.41
2018-04-02T08:18:31.460Z,66.60
2018-04-02T08:20:59.885Z,65.75
2018-04-02T08:23:29.044Z,65.38
2018-04-02T08:25:57.464Z,64.70
2018-04-02T08:28:26.655Z,65.77
2018-04-02T08:30:55.076Z,64.61
2018-04-02T08:33:23.519Z,64.14
2018-04-02T08:35:52.888Z,65.02
2018-04-02T08:38:21.576Z,64.26
2018-04-02T08:40:49.967Z,64.63
2018-04-02T08:43:18.840Z,63.41
2018-04-02T08:45:47.243Z,63.43
2018-04-02T08:48:15.682Z,63.46
2018-04-02T08:50:44.112Z,61.98
2018-04-02T08:53:12.598Z,61.10
2018-04-02T08:55:41.036Z,61.84
2018-04-02T08:58:09.502Z,62.35
2018-04-02T09:00:37.927Z,60.69
2018-04-02T09:03:06.505Z,60.27
2018-04-02T09:05:34.948Z,62.92
2018-04-02T09:08:03.375Z,61.16
2018-04-02T09:10:31.825Z,60.28
2018-04-02T09:13:00.255Z,60.63
2018-04-02T09:15:28.713Z,60.52
2018-04-02T09:17:57.153Z,61.41
2018-04-02T09:20:25.564Z,60.26
2018-04-02T09:22:53.991Z,59.94
2018-04-02T09:25:23.176Z,58.84
2018-04-02T09:27:51.597Z,59.25
2018-04-02T09:30:20.744Z,59.68
2018-04-02T09:32:49.136Z,58.92
2018-04-02T09:35:17.727Z,58.45
2018-04-02T09:37:46.149Z,58.54
2018-04-02T09:40:14.546Z,58.48
2018-04-02T09:42:42.959Z,55.94
2018-04-02T09:45:11.387Z,57.70
2018-04-02T09:47:39.852Z,57.09
2018-04-02T09:50:09.163Z,57.28
2018-04-02T09:52:38.496Z,56.63
2018-04-02T09:55:06.905Z,56.73
2018-04-02T09:57:35.385Z,55.78
2018-04-02T10:00:03.891Z,56.03
2018-04-02T10:02:37.073Z,54.32
2018-04-02T10:05:06.488Z,54.82
2018-04-02T10:07:35.809Z,54.79
2018-04-02T10:10:05.046Z,53.81
2018-04-02T10:12:33.422Z,55.00
2018-04-02T10:15:01.845Z,54.27
2018-04-02T10:17:30.232Z,53.41
2018-04-02T10:19:58.873Z,52.04
2018-04-02T10:22:27.298Z,51.11
2018-04-02T10:24:55.721Z,50.83
2018-04-02T10:27:24.128Z,50.96
2018-04-02T10:29:52.617Z,49.38
2018-04-02T10:32:21.024Z,46.68
2018-04-02T10:34:49.424Z,48.29
2018-04-02T10:37:18.678Z,49.96
2018-04-02T10:39:47.053Z,46.78
2018-04-02T10:42:15.462Z,48.91
2018-04-02T10:44:43.965Z,46.93
2018-04-02T10:47:13.313Z,48.55
2018-04-02T10:49:41.774Z,48.68
2018-04-02T10:52:10.192Z,48.65
2018-04-02T10:54:38.598Z,49.64
2018-04-02T10:57:07.133Z,47.39
2018-04-02T10:59:35.609Z,48.49
2018-04-02T11:02:03.991Z,45.87
2018-04-02T11:04:32.413Z,47.32
2018-04-02T11:07:01.570Z,46.71
2018-04-02T11:09:29.978Z,48.57
2018-04-02T11:11:58.484Z,46.66
2018-04-02T11:14:26.919Z,46.68
2018-04-02T11:16:55.324Z,48.24
2018-04-02T11:19:23.720Z,47.30
2018-04-02T11:21:52.926Z,46.22
2018-04-02T11:24:21.334Z,46.67
2018-04-02T11:26:49.791Z,48.46
2018-04-02T11:29:18.179Z,46.99
2018-04-02T11:31:46.695Z,47.35
2018-04-02T11:34:15.884Z,47.33
2018-04-02T11:36:45.080Z,46.87
2018-04-02T11:39:14.244Z,45.86
2018-04-02T11:41:42.668Z,47.00
2018-04-02T11:44:11.087Z,47.52
2018-04-02T11:46:39.470Z,47.50
2018-04-02T11:49:07.893Z,45.14
2018-04-02T11:51:36.319Z,47.15
2018-04-02T11:54:04.752Z,46.57
2018-04-02T11:56:33.124Z,47.27
2018-04-02T11:59:01.512Z,48.86
2018-04-02T12:01:29.904Z,48.48
2018-04-02T12:03:59.111Z,48.52
2018-04-02T12:06:28.416Z,48.53
2018-04-02T12:08:57.151Z,46.21
2018-04-02T12:11:25.539Z,46.59
2018-04-02T12:13:53.943Z,47.49
2018-04-02T12:16:22.335Z,46.95
2018-04-02T12:18:50.747Z,46.93
2018-04-02T12:21:19.178Z,48.28
2018-04-02T12:23:48.347Z,46.11
2018-04-02T12:26:16.749Z,48.12
2018-04-02T12:28:45.158Z,46.41
2018-04-02T12:31:13.538Z,47.13
2018-04-02T12:33:42.731Z,47.90
2018-04-02T12:36:17.267Z,48.47
2018-04-02T12:38:46.471Z,47.50
2018-04-02T12:41:15.744Z,46.78
2018-04-02T12:43:44.145Z,47.08
2018-04-02T12:46:13.351Z,47.08
2018-04-02T12:48:42.615Z,47.59
2018-04-02T12:51:11.410Z,48.28
2018-04-02T12:53:39.923Z,48.23
2018-04-02T12:56:08.310Z,48.99
2018-04-02T12:58:36.740Z,47.00
2018-04-02T13:01:05.138Z,48.64
2018-04-02T13:03:33.547Z,45.48
2018-04-02T13:06:02.757Z,46.44
2018-04-02T13:08:31.950Z,44.48
2018-04-02T13:11:01.106Z,44.69
2018-04-02T13:13:29.483Z,44.04
2018-04-02T13:15:57.889Z,44.84
2018-04-02T13:18:27.050Z,44.70
2018-04-02T13:20:55.436Z,44.05
2018-04-02T13:23:23.869Z,42.53
2018-04-02T13:25:53.084Z,43.40
2018-04-02T13:28:22.253Z,43.11
2018-04-02T13:30:50.946Z,43.62
2018-04-02T13:33:19.398Z,44.16
2018-04-02T13:35:47.756Z,42.50
2018-04-02T13:38:16.173Z,42.91
2018-04-02T13:40:44.558Z,42.88
2018-04-02T13:43:12.948Z,41.40
2018-04-02T13:45:41.381Z,41.36
2018-04-02T13:48:09.748Z,40.80
2018-04-02T13:50:38.154Z,39.80
2018-04-02T13:53:06.559Z,39.16
2018-04-02T13:55:35.020Z,39.99
2018-04-02T13:58:03.455Z,41.19
2018-04-02T14:00:32.682Z,41.55
2018-04-02T14:03:01.094Z,41.77
2018-04-02T14:05:29.476Z,41.26
2018-04-02T14:07:57.846Z,43.18
2018-04-02T14:10:26.239Z,43.38
2018-04-02T14:12:54.647Z,44.98
2018-04-02T14:15:23.879Z,46.86
2018-04-02T14:17:52.297Z,48.10
2018-04-02T14:20:20.747Z,49.66
2018-04-02T14:22:49.146Z,49.02
2018-04-02T14:25:17.559Z,48.76
2018-04-02T14:27:45.976Z,49.18
2018-04-02T14:30:14.570Z,52.06
2018-04-02T14:32:42.947Z,49.62
2018-04-02T14:35:12.112Z,49.54
2018-04-02T14:37:40.523Z,47.96
2018-04-02T14:40:09.703Z,47.85
2018-04-02T14:42:38.860Z,49.22
2018-04-02T14:45:07.263Z,48.86
2018-04-02T14:47:35.673Z,47.35
2018-04-02T14:50:04.088Z,46.66
2018-04-02T14:52:32.565Z,46.62
2018-04-02T14:55:00.984Z,45.73
2018-04-02T14:57:29.387Z,46.69
2018-04-02T14:59:57.834Z,46.99
2018-04-02T15:02:26.261Z,48.50
2018-04-02T15:04:55.436Z,47.23
2018-04-02T15:07:23.880Z,46.49
2018-04-02T15:09:52.372Z,47.15
2018-04-02T15:12:20.790Z,46.83
2018-04-02T15:14:49.209Z,47.00
2018-04-02T15:17:17.680Z,46.77
2018-04-02T15:19:47.002Z,46.01
2018-04-02T15:22:15.564Z,46.59
2018-04-02T15:24:44.874Z,45.46
2018-04-02T15:27:14.067Z,45.68
2018-04-02T15:29:43.278Z,45.21
2018-04-02T15:32:11.696Z,46.06
2018-04-02T15:34:40.130Z,47.88
2018-04-02T15:37:09.291Z,46.62
2018-04-02T15:39:37.720Z,47.19
2018-04-02T15:42:06.127Z,45.23
2018-04-02T15:44:34.552Z,45.69
2018-04-02T15:47:02.981Z,46.89
2018-04-02T15:49:31.375Z,44.99
2018-04-02T15:51:59.929Z,45.80
2018-04-02T15:54:28.423Z,46.20
2018-04-02T15:56:56.803Z,46.19
2018-04-02T15:59:25.219Z,46.13
2018-04-02T16:01:53.631Z,48.26
2018-04-02T16:04:22.072Z,47.15
2018-04-02T16:06:51.088Z,47.46
2018-04-02T16:09:19.485Z,48.18
2018-04-02T16:11:48.718Z,47.87
2018-04-02T16:14:17.117Z,48.30
2018-04-02T16:16:45.504Z,47.87
2018-04-02T16:19:13.981Z,48.88
2018-04-02T16:21:42.413Z,47.30
2018-04-02T16:24:11.678Z,47.18
2018-04-02T16:26:40.066Z,47.83
2018-04-02T16:29:08.473Z,46.85
2018-04-02T16:31:37.634Z,47.31
2018-04-02T16:34:06.213Z,47.83
2018-04-02T16:36:34.620Z,47.49
2018-04-02T16:39:03.770Z,48.01
2018-04-02T16:41:32.171Z,47.89
2018-04-02T16:44:00.667Z,46.97
2018-04-02T16:46:29.208Z,47.77
2018-04-02T16:48:57.652Z,47.13
2018-04-02T16:51:26.904Z,46.78
2018-04-02T16:53:55.327Z,46.13
2018-04-02T16:56:23.716Z,46.85
2018-04-02T16:58:52.122Z,46.24
2018-04-02T17:01:20.679Z,46.84
2018-04-02T17:03:49.070Z,45.81
2018-04-02T17:06:17.554Z,47.16
2018-04-02T17:08:46.047Z,47.66
2018-04-02T17:11:14.475Z,48.30
2018-04-02T17:13:43.631Z,48.66
2018-04-02T17:16:12.048Z,47.86
2018-04-02T17:18:41.233Z,48.55
2018-04-02T17:21:09.654Z,49.32
2018-04-02T17:23:38.060Z,48.59
2018-04-02T17:26:06.489Z,48.05
2018-04-02T17:28:35.689Z,48.17
2018-04-02T17:31:04.884Z,48.60
2018-04-02T17:33:34.046Z,51.93
2018-04-02T17:36:02.442Z,52.13
2018-04-02T17:38:30.922Z,54.78
2018-04-02T17:41:00.224Z,57.36
2018-04-02T17:43:29.467Z,57.74
2018-04-02T17:45:58.692Z,56.89
2018-04-02T17:48:27.111Z,57.74
2018-04-02T17:50:55.533Z,55.83
2018-04-02T17:53:23.973Z,57.35
2018-04-02T17:55:52.365Z,56.30
2018-04-02T17:58:21.575Z,55.87
2018-04-02T18:00:50.730Z,56.16
2018-04-02T18:03:19.163Z,58.79
2018-04-02T18:05:48.380Z,58.68
2018-04-02T18:08:17.539Z,59.64
2018-04-02T18:10:45.952Z,61.74
2018-04-02T18:13:14.381Z,61.36
2018-04-02T18:15:43.048Z,60.80
2018-04-02T18:18:11.496Z,64.19
2018-04-02T18:20:40.674Z,67.21
2018-04-02T18:23:09.088Z,67.42
2018-04-02T18:25:37.540Z,70.98
2018-04-02T18:28:06.993Z,67.95
2018-04-02T18:30:35.598Z,70.27
2018-04-02T18:33:04.008Z,68.60
2018-04-02T18:35:33.230Z,68.12
2018-04-02T18:38:02.443Z,68.49
2018-04-02T18:40:30.853Z,68.80
2018-04-02T18:42:59.256Z,69.86
2018-04-02T18:45:27.665Z,69.81
2018-04-02T18:47:56.128Z,70.01
2018-04-02T18:50:24.567Z,71.25
2018-04-02T18:52:53.772Z,72.64
2018-04-02T18:55:22.979Z,71.15
2018-04-02T18:57:51.450Z,71.45
2018-04-02T19:00:20.638Z,71.78
2018-04-02T19:02:49.970Z,73.80
2018-04-02T19:05:18.434Z,73.19
2018-04-02T19:07:47.622Z,73.87
2018-04-02T19:10:16.840Z,74.61
2018-04-02T19:12:46.072Z,75.80
2018-04-02T19:15:14.930Z,73.67
2018-04-02T19:17:43.344Z,74.07
2018-04-02T19:20:11.749Z,75.07
2018-04-02T19:22:40.268Z,74.87
2018-04-02T19:25:09.540Z,73.78
2018-04-02T19:27:37.959Z,74.20
2018-04-02T19:30:06.405Z,73.90
2018-04-02T19:32:34.842Z,74.87
2018-04-02T19:35:03.364Z,74.38
2018-04-02T19:37:31.850Z,75.64
2018-04-02T19:40:00.220Z,73.77
2018-04-02T19:42:28.640Z,74.66
2018-04-02T19:44:57.072Z,75.17
2018-04-02T19:47:25.690Z,74.42
2018-04-02T19:49:54.114Z,74.60
2018-04-02T19:52:22.553Z,74.73
2018-04-02T19:54:50.935Z,74.69
2018-04-02T19:57:19.398Z,74.60
2018-04-02T19:59:47.863Z,75.48
2018-04-02T20:02:16.326Z,75.60
2018-04-02T20:04:44.846Z,75.24
2018-04-02T20:07:13.521Z,77.41
2018-04-02T20:09:42.015Z,75.55
2018-04-02T20:12:10.569Z,76.34
2018-04-02T20:14:39.076Z,75.58
2018-04-02T20:17:07.654Z,75.67
2018-04-02T20:19:36.163Z,76.74
2018-04-02T20:22:05.384Z,77.30
2018-04-02T20:24:34.769Z,76.21
2018-04-02T20:27:03.243Z,77.84
2018-04-02T20:29:31.717Z,77.97
2018-04-02T20:32:00.221Z,77.54
2018-04-02T20:34:28.656Z,79.05
2018-04-02T20:36:57.101Z,78.51
2018-04-02T20:39:25.696Z,79.58
2018-04-02T20:41:54.935Z,80.53
2018-04-02T20:44:23.416Z,80.03
2018-04-02T20:46:51.932Z,79.12
2018-04-02T20:49:20.394Z,80.10
2018-04-02T20:51:48.923Z,80.25
2018-04-02T20:54:18.157Z,80.46
2018-04-02T20:56:46.514Z,81.25
2018-04-02T20:59:14.928Z,81.13
2018-04-02T21:01:43.358Z,80.07
2018-04-02T21:04:11.786Z,79.87
2018-04-02T21:06:40.201Z,79.37
2018-04-02T21:09:08.699Z,79.22
2018-04-02T21:11:37.109Z,78.93
2018-04-02T21:14:06.310Z,78.02
2018-04-02T21:16:35.517Z,78.36
2018-04-02T21:19:04.671Z,79.01
2018-04-02T21:21:33.220Z,79.50
2018-04-02T21:24:01.634Z,78.43
2018-04-02T21:26:30.053Z,78.13
2018-04-02T21:28:58.566Z,76.83
2018-04-02T21:31:27.457Z,78.42
2018-04-02T21:33:55.919Z,78.47
2018-04-02T21:36:24.312Z,77.42
2018-04-02T21:38:53.003Z,78.39
2018-04-02T21:41:21.469Z,78.75
2018-04-02T21:43:50.712Z,79.96
2018-04-02T21:46:19.131Z,79.17
2018-04-02T21:48:47.579Z,78.34
2018-04-02T21:51:16.008Z,76.72
2018-04-02T21:53:44.525Z,75.30
2018-04-02T21:56:12.943Z,75.05
2018-04-02T21:58:41.417Z,74.37
2018-04-02T22:01:09.833Z,74.93
2018-04-02T22:03:38.271Z,75.26
2018-04-02T22:06:06.645Z,74.26
2018-04-02T22:08:35.115Z,75.70
2018-04-02T22:11:03.603Z,74.97
2018-04-02T22:13:32.004Z,73.69
2018-04-02T22:16:00.457Z,73.95
2018-04-02T22:18:28.864Z,73.50
2018-04-02T22:20:57.305Z,73.33
2018-04-02T22:23:25.691Z,72.78
2018-04-02T22:25:54.903Z,71.35
2018-04-02T22:28:23.367Z,73.36
2018-04-02T22:30:51.819Z,72.06
2018-04-02T22:33:21.327Z,73.46
2018-04-02T22:35:50.883Z,72.62
2018-04-02T22:38:19.495Z,72.88
2018-04-02T22:40:48.266Z,71.75
2018-04-02T22:43:18.207Z,71.84
2018-04-02T22:45:46.810Z,73.03
2018-04-02T22:48:15.713Z,72.01
2018-04-02T22:50:44.288Z,71.88
2018-04-02T22:53:13.491Z,71.32
2018-04-02T22:55:41.910Z,71.67
2018-04-02T22:58:11.116Z,72.14
2018-04-02T23:00:39.683Z,72.85
2018-04-02T23:03:08.846Z,70.75
2018-04-02T23:05:37.277Z,70.93
2018-04-02T23:08:05.909Z,71.07
2018-04-02T23:10:34.440Z,71.24
2018-04-02T23:13:02.868Z,71.23
2018-04-02T23:15:31.276Z,72.30
2018-04-02T23:17:59.734Z,75.51
2018-04-02T23:20:28.160Z,75.31
2018-04-02T23:22:57.334Z,76.55
2018-04-02T23:25:25.734Z,77.82
2018-04-02T23:27:54.143Z,77.29
2018-04-02T23:30:22.662Z,77.47
2018-04-02T23:32:51.055Z,79.35
2018-04-02T23:35:19.466Z,78.58
2018-04-02T23:37:48.633Z,78.68
2018-04-02T23:40:17.039Z,77.85
2018-04-02T23:42:45.425Z,77.78
2018-04-02T23:45:14.623Z,78.15
2018-04-02T23:47:43.078Z,77.78
2018-04-02T23:50:11.462Z,77.88
2018-04-02T23:52:39.851Z,77.88
2018-04-02T23:55:08.266Z,79.95
2018-04-02T23:57:36.668Z,78.97
